Time;durP1;ratioP1;P1;durP2;ratioP2;P2;SDS_P1;SDS_P2;PMS_P1;PMS_P2;Temp;Humidity;BMP_temperature;BMP_pressure;BME280_temperature;BME280_humidity;BME280_pressure;Samples;Min_cycle;Max_cycle;Signal;HPM_P1;HPM_P2
2022/12/30 00:02:05;;;;;;;;;;;;;;;-1.55;85.78;99523.97;4944617;28;19978;-67
2022/12/30 00:04:32;;;;;;;;;;;;;;;-1.58;85.81;99514.44;4944126;28;19930;-66
2022/12/30 00:07:00;;;;;;;;;;;;;;;-1.61;86.18;99521.03;4945302;28;19965;-66
2022/12/30 00:09:25;;;;;;;;;;;;;;;-1.55;86.01;99524.78;4944525;28;20014;-67
2022/12/30 00:11:51;;;;;;;;;;;;;;;-1.49;86.08;99528.50;4916801;29;20085;-66
2022/12/30 00:33:29;;;;;;;;;;;;;;;-1.39;85.60;99523.59;4939972;28;19938;-66
2022/12/30 00:35:57;;;;;;;;;;;;;;;-1.41;85.31;99514.88;4946721;28;19931;-66
2022/12/30 00:38:23;;;;;;;;;;;;;;;-1.41;85.27;99514.06;4928724;29;19930;-66
2022/12/30 00:43:33;;;;;;;;;;;;;;;-1.47;85.49;99521.06;4934718;28;20473;-66
2022/12/30 00:45:59;;;;;;;;;;;;;;;-1.51;85.49;99514.47;4912144;29;19931;-66
2022/12/30 00:56:39;;;;;;;;;;;;;;;-1.37;85.65;99493.84;4945859;28;19930;-66
2022/12/30 00:59:04;;;;;;;;;;;;;;;-1.38;85.39;99506.47;4947171;28;20335;-66
2022/12/30 01:01:30;;;;;;;;;;;;;;;-1.37;85.64;99491.19;4949206;28;19966;-66
2022/12/30 01:03:56;;;;;;;;;;;;;;;-1.37;85.33;99491.19;4945749;28;19936;-66
2022/12/30 01:06:23;;;;;;;;;;;;;;;-1.37;85.53;99499.22;4948246;28;19930;-66
2022/12/30 01:08:49;;;;;;;;;;;;;;;-1.35;85.56;99498.00;4949030;28;19935;-66
2022/12/30 01:11:14;;;;;;;;;;;;;;;-1.29;85.71;99504.41;4947117;28;19958;-66
2022/12/30 01:13:40;;;;;;;;;;;;;;;-1.24;85.62;99498.44;4950687;28;19973;-66
2022/12/30 01:16:07;;;;;;;;;;;;;;;-1.27;85.25;99485.41;4948729;28;19985;-66
2022/12/30 01:18:32;;;;;;;;;;;;;;;-1.26;85.29;99484.38;4946595;28;19934;-66
2022/12/30 01:20:58;;;;;;;;;;;;;;;-1.23;85.29;99484.78;4947349;28;20309;-66
2022/12/30 01:23:25;;;;;;;;;;;;;;;-1.18;85.41;99487.69;4947116;28;20421;-66
2022/12/30 01:25:51;;;;;;;;;;;;;;;-1.21;85.06;99488.09;4947644;28;19978;-66
2022/12/30 01:28:16;;;;;;;;;;;;;;;-1.21;85.08;99485.41;4947282;28;19934;-66
2022/12/30 01:30:42;;;;;;;;;;;;;;;-1.20;84.97;99492.44;4949349;28;19931;-66
2022/12/30 01:33:08;;;;;;;;;;;;;;;-1.24;84.90;99490.38;4948550;28;20037;-66
2022/12/30 01:35:34;;;;;;;;;;;;;;;-1.32;85.20;99491.41;4947557;28;20394;-66
2022/12/30 01:37:59;;;;;;;;;;;;;;;-1.35;84.95;99491.78;4947777;28;19937;-66
2022/12/30 01:40:26;;;;;;;;;;;;;;;-1.37;84.98;99491.19;4947205;28;19985;-66
2022/12/30 01:42:52;;;;;;;;;;;;;;;-1.41;84.94;99488.06;4945899;28;19977;-65
2022/12/30 01:45:19;;;;;;;;;;;;;;;-1.43;85.04;99490.13;4928455;28;19962;-66
2022/12/30 01:47:48;;;;;;;;;;;;;;;-1.40;85.29;99491.59;4929679;29;19986;-66
2022/12/30 01:50:20;;;;;;;;;;;;;;;-1.36;85.22;99487.47;4928517;29;20042;-66
2022/12/30 01:52:47;;;;;;;;;;;;;;;-1.36;85.16;99488.31;4927403;29;19962;-66
2022/12/30 01:55:15;;;;;;;;;;;;;;;-1.34;85.24;99488.91;4927735;29;19978;-66
2022/12/30 01:57:43;;;;;;;;;;;;;;;-1.29;85.43;99478.38;4926767;29;20310;-66
2022/12/30 02:00:10;;;;;;;;;;;;;;;-1.26;85.34;99476.31;4931517;29;20419;-66
2022/12/30 02:02:38;;;;;;;;;;;;;;;-1.25;85.18;99464.56;4928295;29;19930;-66
2022/12/30 02:05:06;;;;;;;;;;;;;;;-1.29;85.58;99461.47;4929788;29;19994;-66
2022/12/30 02:07:34;;;;;;;;;;;;;;;-1.26;85.43;99455.69;4927786;29;19938;-66
2022/12/30 02:10:00;;;;;;;;;;;;;;;-1.24;85.42;99447.47;4929520;29;20023;-66
2022/12/30 02:12:25;;;;;;;;;;;;;;;-1.27;85.41;99446.00;4929277;29;20025;-66
2022/12/30 02:14:55;;;;;;;;;;;;;;;-1.23;85.61;99443.75;4926361;29;19931;-66
2022/12/30 02:17:24;;;;;;;;;;;;;;;-1.22;85.19;99445.41;4929088;28;19930;-66
2022/12/30 02:20:04;;;;;;;;;;;;;;;-1.22;85.20;99450.75;4928627;29;20213;-66
2022/12/30 02:22:36;;;;;;;;;;;;;;;-1.26;85.35;99442.28;4923992;29;19930;-66
2022/12/30 02:25:15;;;;;;;;;;;;;;;-1.25;85.45;99448.47;4930060;29;19930;-66
2022/12/30 02:27:56;;;;;;;;;;;;;;;-1.29;85.49;99451.56;4939318;28;20028;-66
2022/12/30 02:30:23;;;;;;;;;;;;;;;-1.31;85.70;99445.59;4947135;28;20029;-66
2022/12/30 02:33:07;;;;;;;;;;;;;;;-1.29;85.81;99443.50;4946070;28;19931;-66
2022/12/30 02:35:37;;;;;;;;;;;;;;;-1.26;85.78;99436.09;4948774;28;20394;-66
2022/12/30 02:38:08;;;;;;;;;;;;;;;-1.25;85.88;99445.78;4945570;28;20070;-66
2022/12/30 02:46:09;;;;;;;;;;;;;;;-1.34;86.24;99448.69;4944866;28;19970;-66
2022/12/30 02:48:37;;;;;;;;;;;;;;;-1.35;86.40;99449.72;4945885;28;19953;-66
2022/12/30 02:53:49;;;;;;;;;;;;;;;-1.41;86.70;99442.47;4944995;28;19937;-66
2022/12/30 02:56:15;;;;;;;;;;;;;;;-1.39;86.77;99444.97;4948234;28;20306;-66
2022/12/30 02:58:44;;;;;;;;;;;;;;;-1.39;86.71;99440.44;4936984;28;19931;-66
2022/12/30 03:04:21;;;;;;;;;;;;;;;-1.37;86.69;99449.09;4936167;28;20427;-67
2022/12/30 03:07:01;;;;;;;;;;;;;;;-1.34;86.70;99443.31;4925101;29;19958;-66
2022/12/30 03:09:33;;;;;;;;;;;;;;;-1.37;86.68;99432.16;4926772;28;19978;-66
2022/12/30 03:12:03;;;;;;;;;;;;;;;-1.39;86.89;99426.19;4926689;29;19974;-66
2022/12/30 03:14:33;;;;;;;;;;;;;;;-1.47;86.94;99427.22;4926960;29;20315;-66
2022/12/30 03:17:01;;;;;;;;;;;;;;;-1.48;87.49;99429.06;4926723;29;20294;-66
2022/12/30 03:19:28;;;;;;;;;;;;;;;-1.49;87.75;99424.72;4929752;29;20033;-66
2022/12/30 03:21:56;;;;;;;;;;;;;;;-1.49;87.80;99431.94;4925706;29;19978;-66
2022/12/30 03:27:11;;;;;;;;;;;;;;;-1.41;88.27;99439.78;4925830;29;19931;-66
2022/12/30 03:29:38;;;;;;;;;;;;;;;-1.37;88.13;99442.88;4925582;29;20013;-66
2022/12/30 03:32:05;;;;;;;;;;;;;;;-1.32;88.30;99435.06;4927982;29;19931;-66
2022/12/30 03:34:31;;;;;;;;;;;;;;;-1.29;88.09;99429.28;4925530;29;20146;-66
2022/12/30 03:37:01;;;;;;;;;;;;;;;-1.30;88.03;99428.44;4925800;29;19934;-67
2022/12/30 03:39:29;;;;;;;;;;;;;;;-1.29;88.15;99431.97;4926302;29;20377;-66
2022/12/30 03:41:55;;;;;;;;;;;;;;;-1.29;88.23;99446.19;4931099;29;19966;-66
2022/12/30 03:44:21;;;;;;;;;;;;;;;-1.27;88.23;99450.53;4925411;29;20390;-66
2022/12/30 03:46:47;;;;;;;;;;;;;;;-1.24;88.25;99444.78;4930059;28;19942;-67
2022/12/30 03:49:13;;;;;;;;;;;;;;;-1.34;88.17;99429.06;4937663;28;19930;-66
2022/12/30 03:51:39;;;;;;;;;;;;;;;-1.21;88.30;99439.00;4928675;28;19931;-66
2022/12/30 03:54:06;;;;;;;;;;;;;;;-1.21;87.98;99434.44;4944829;28;19930;-66
2022/12/30 03:56:32;;;;;;;;;;;;;;;-1.35;87.97;99422.03;4946500;28;19930;-66
2022/12/30 03:58:58;;;;;;;;;;;;;;;-1.35;88.19;99422.03;4944620;28;19934;-66
2022/12/30 04:01:23;;;;;;;;;;;;;;;-1.31;88.32;99421.44;4943993;28;19985;-69
2022/12/30 04:03:49;;;;;;;;;;;;;;;-1.23;88.24;99433.81;4943699;28;19930;-66
2022/12/30 04:06:15;;;;;;;;;;;;;;;-1.30;88.01;99424.97;4945852;28;19977;-66
2022/12/30 04:08:40;;;;;;;;;;;;;;;-1.31;88.25;99432.16;4946731;28;19938;-66
2022/12/30 04:11:08;;;;;;;;;;;;;;;-1.29;88.24;99440.84;4945906;28;19930;-66
2022/12/30 04:13:33;;;;;;;;;;;;;;;-1.24;88.50;99437.53;4944202;28;20021;-66
2022/12/30 04:15:59;;;;;;;;;;;;;;;-1.20;88.28;99433.41;4944942;28;20018;-67
2022/12/30 04:18:25;;;;;;;;;;;;;;;-1.21;88.34;99431.75;4948932;28;20473;-66
2022/12/30 04:20:50;;;;;;;;;;;;;;;-1.17;88.59;99433.00;4950491;28;19931;-66
2022/12/30 04:23:16;;;;;;;;;;;;;;;-1.13;88.26;99435.28;4948381;28;19935;-67
2022/12/30 04:25:42;;;;;;;;;;;;;;;-1.12;88.26;99423.50;4932674;28;19931;-66
2022/12/30 04:28:09;;;;;;;;;;;;;;;-1.13;88.21;99420.00;4929474;29;20042;-66
2022/12/30 04:30:35;;;;;;;;;;;;;;;-1.17;88.26;99413.38;4928426;29;19941;-66
2022/12/30 04:33:01;;;;;;;;;;;;;;;-1.17;88.57;99402.66;4930472;29;19994;-66
2022/12/30 04:35:26;;;;;;;;;;;;;;;-1.16;88.41;99401.63;4939210;29;19930;-66
2022/12/30 04:37:52;;;;;;;;;;;;;;;-1.22;88.57;99397.09;4936695;28;20128;-66
2022/12/30 04:40:18;;;;;;;;;;;;;;;-1.23;88.57;99398.94;4937724;28;19930;-66
2022/12/30 04:42:44;;;;;;;;;;;;;;;-1.19;88.96;99385.94;4943632;28;19936;-66
2022/12/30 04:45:11;;;;;;;;;;;;;;;-1.20;88.98;99376.25;4947382;28;19930;-66
2022/12/30 04:47:37;;;;;;;;;;;;;;;-1.21;88.83;99377.28;4949400;28;19986;-66
2022/12/30 04:50:03;;;;;;;;;;;;;;;-1.21;88.90;99375.41;4947368;28;19930;-66
2022/12/30 04:52:29;;;;;;;;;;;;;;;-1.22;89.07;99381.00;4947820;28;19931;-66
2022/12/30 04:54:55;;;;;;;;;;;;;;;-1.32;89.08;99382.22;4948930;28;19930;-66
2022/12/30 04:57:20;;;;;;;;;;;;;;;-1.31;89.50;99369.66;4943966;28;19935;-66
2022/12/30 04:59:46;;;;;;;;;;;;;;;-1.27;89.37;99373.56;4928729;29;19977;-66
2022/12/30 05:02:13;;;;;;;;;;;;;;;-1.26;89.22;99375.22;4928784;29;19978;-67
2022/12/30 05:04:39;;;;;;;;;;;;;;;-1.27;89.28;99373.56;4931821;29;19986;-68
2022/12/30 05:07:04;;;;;;;;;;;;;;;-1.30;89.25;99372.13;4929053;29;19931;-66
2022/12/30 05:09:30;;;;;;;;;;;;;;;-1.26;89.28;99375.22;4930736;28;19966;-66
2022/12/30 05:11:56;;;;;;;;;;;;;;;-1.18;89.46;99376.84;4930748;29;19945;-67
2022/12/30 05:14:22;;;;;;;;;;;;;;;-1.18;89.35;99380.34;4926928;29;20348;-66
2022/12/30 05:16:47;;;;;;;;;;;;;;;-1.17;89.14;99391.94;4930565;29;19970;-66
2022/12/30 05:19:14;;;;;;;;;;;;;;;-1.18;89.07;99383.03;4929531;28;19931;-66
2022/12/30 05:21:40;;;;;;;;;;;;;;;-1.24;89.16;99383.88;4928337;29;20026;-66
2022/12/30 05:26:53;;;;;;;;;;;;;;;-1.27;89.54;99376.25;4929420;29;20319;-66
2022/12/30 05:29:18;;;;;;;;;;;;;;;-1.28;89.42;99374.59;4930951;29;19930;-66
2022/12/30 05:31:44;;;;;;;;;;;;;;;-1.30;89.44;99372.13;4924523;29;19931;-66
2022/12/30 05:34:10;;;;;;;;;;;;;;;-1.27;89.53;99375.41;4926666;29;20411;-66
2022/12/30 05:36:38;;;;;;;;;;;;;;;-1.23;89.35;99371.31;4955263;28;19930;-66
2022/12/30 05:39:04;;;;;;;;;;;;;;;-1.18;89.49;99376.84;4966409;28;19930;-66
2022/12/30 05:41:29;;;;;;;;;;;;;;;-1.20;89.56;99377.06;4932060;28;19941;-65
2022/12/30 05:43:55;;;;;;;;;;;;;;;-1.17;89.51;99373.97;4929146;29;19934;-65
2022/12/30 05:46:21;;;;;;;;;;;;;;;-1.14;89.44;99380.78;4936204;28;19938;-66
2022/12/30 05:48:47;;;;;;;;;;;;;;;-1.07;89.33;99383.44;4929336;29;19966;-66
2022/12/30 05:51:13;;;;;;;;;;;;;;;-1.08;89.17;99388.00;4941295;28;19930;-66
2022/12/30 05:53:41;;;;;;;;;;;;;;;-1.10;89.14;99390.03;4945656;28;19982;-66
2022/12/30 05:56:06;;;;;;;;;;;;;;;-1.11;89.32;99393.75;4934369;28;19934;-65
2022/12/30 05:58:32;;;;;;;;;;;;;;;-1.11;89.17;99396.44;4948598;28;19938;-65
2022/12/30 06:00:58;;;;;;;;;;;;;;;-1.10;89.09;99400.78;4946992;28;19934;-66
2022/12/30 06:03:24;;;;;;;;;;;;;;;-1.11;89.17;99393.75;4948974;28;20295;-65
2022/12/30 06:05:54;;;;;;;;;;;;;;;-1.16;89.29;99386.38;4941428;28;19930;-66
2022/12/30 06:08:20;;;;;;;;;;;;;;;-1.16;89.38;99390.88;4928696;29;20021;-66
2022/12/30 06:10:47;;;;;;;;;;;;;;;-1.20;89.26;99381.63;4928282;29;19974;-66
2022/12/30 06:13:12;;;;;;;;;;;;;;;-1.22;89.58;99389.84;4930262;29;20390;-66
2022/12/30 06:15:38;;;;;;;;;;;;;;;-1.19;89.64;99383.25;4928150;29;19937;-66
2022/12/30 06:18:04;;;;;;;;;;;;;;;-1.20;89.84;99377.06;4931032;28;20407;-66
2022/12/30 06:20:29;;;;;;;;;;;;;;;-1.15;89.82;99379.13;4928425;29;20411;-66
2022/12/30 06:22:55;;;;;;;;;;;;;;;-1.18;89.54;99374.97;4930323;29;20040;-66
2022/12/30 06:25:21;;;;;;;;;;;;;;;-1.20;89.71;99379.75;4930965;29;20163;-66
2022/12/30 06:27:48;;;;;;;;;;;;;;;-1.20;90.01;99378.94;4928863;29;19930;-65
2022/12/30 06:30:13;;;;;;;;;;;;;;;-1.19;90.21;99383.25;4947896;28;20115;-66
2022/12/30 06:32:39;;;;;;;;;;;;;;;-1.18;90.24;99385.72;4950152;28;19962;-66
2022/12/30 06:35:06;;;;;;;;;;;;;;;-1.13;90.47;99384.28;4945706;28;19930;-66
2022/12/30 06:37:32;;;;;;;;;;;;;;;-1.05;90.52;99384.06;4958820;28;19930;-66
2022/12/30 06:39:58;;;;;;;;;;;;;;;-1.04;90.29;99380.34;4943960;28;20008;-66
2022/12/30 06:42:24;;;;;;;;;;;;;;;-1.01;90.27;99372.69;4946247;28;19931;-66
2022/12/30 06:44:51;;;;;;;;;;;;;;;-0.94;90.01;99369.16;4948796;28;19930;-66
2022/12/30 06:47:16;;;;;;;;;;;;;;;-0.85;90.12;99365.25;4959247;28;19976;-66
2022/12/30 06:49:42;;;;;;;;;;;;;;;-0.77;89.80;99367.72;4951368;28;19935;-66
2022/12/30 06:52:08;;;;;;;;;;;;;;;-0.74;89.65;99364.59;4954353;28;20503;-66
2022/12/30 06:54:34;;;;;;;;;;;;;;;-0.65;89.79;99369.72;4952029;28;19930;-66
2022/12/30 06:56:59;;;;;;;;;;;;;;;-0.57;89.29;99366.81;4946509;28;20383;-66
2022/12/30 06:59:25;;;;;;;;;;;;;;;-0.54;89.01;99366.38;4946121;28;20465;-66
2022/12/30 07:01:53;;;;;;;;;;;;;;;-0.51;89.03;99368.63;4948999;28;20307;-66
2022/12/30 07:04:18;;;;;;;;;;;;;;;-0.47;88.81;99374.41;4949047;28;20028;-66
2022/12/30 07:06:44;;;;;;;;;;;;;;;-0.47;88.83;99377.94;4939220;28;19970;-66
2022/12/30 07:09:10;;;;;;;;;;;;;;;-0.45;88.67;99373.19;4945531;28;20069;-66
2022/12/30 07:11:35;;;;;;;;;;;;;;;-0.46;88.56;99371.53;4946551;28;19937;-66
2022/12/30 07:14:01;;;;;;;;;;;;;;;-0.42;88.45;99363.84;4952264;28;20389;-66
2022/12/30 07:16:27;;;;;;;;;;;;;;;-0.38;88.60;99369.63;4947657;28;19931;-66
2022/12/30 07:18:54;;;;;;;;;;;;;;;-0.39;88.37;99366.13;4957821;28;20032;-66
2022/12/30 07:21:19;;;;;;;;;;;;;;;-0.39;88.21;99371.50;4953500;28;19937;-66
2022/12/30 07:23:45;;;;;;;;;;;;;;;-0.39;88.44;99376.03;4962565;28;19930;-67
2022/12/30 07:26:11;;;;;;;;;;;;;;;-0.36;88.30;99376.44;4964129;28;20294;-66
2022/12/30 07:28:37;;;;;;;;;;;;;;;-0.36;88.42;99380.97;4959967;28;19977;-66
2022/12/30 07:31:02;;;;;;;;;;;;;;;-0.36;88.24;99379.13;4951995;28;20054;-66
2022/12/30 07:33:28;;;;;;;;;;;;;;;-0.34;88.48;99377.06;4944075;28;19958;-66
2022/12/30 07:35:55;;;;;;;;;;;;;;;-0.32;88.40;99384.88;4940249;28;19931;-65
2022/12/30 07:38:21;;;;;;;;;;;;;;;-0.28;88.37;99383.44;4946127;28;20016;-66
2022/12/30 07:40:47;;;;;;;;;;;;;;;-0.19;88.39;99387.50;4938229;28;20033;-66
2022/12/30 07:43:12;;;;;;;;;;;;;;;-0.11;88.35;99389.13;4941448;28;20020;-66
2022/12/30 07:45:38;;;;;;;;;;;;;;;-0.11;88.15;99391.00;4943786;28;20047;-66
2022/12/30 07:48:04;;;;;;;;;;;;;;;-0.06;87.98;99380.44;4944830;28;19930;-66
2022/12/30 07:50:30;;;;;;;;;;;;;;;-0.05;87.66;99379.38;4945083;28;19945;-66
2022/12/30 07:52:57;;;;;;;;;;;;;;;-0.02;87.47;99378.94;4943792;28;19931;-66
2022/12/30 07:55:23;;;;;;;;;;;;;;;0.00;87.68;99384.97;4941955;28;19969;-66
2022/12/30 07:57:48;;;;;;;;;;;;;;;0.02;87.58;99374.81;4960088;28;20016;-66
2022/12/30 08:00:14;;;;;;;;;;;;;;;0.04;87.27;99375.41;4949007;28;19931;-66
2022/12/30 08:02:40;;;;;;;;;;;;;;;0.07;87.23;99372.28;4947719;28;20394;-66
2022/12/30 08:05:06;;;;;;;;;;;;;;;0.14;86.96;99377.63;4950559;28;20449;-66
2022/12/30 08:07:32;;;;;;;;;;;;;;;0.08;86.76;99382.00;4946903;28;20033;-66
2022/12/30 08:09:59;;;;;;;;;;;;;;;0.06;86.83;99391.31;4948518;28;20045;-66
2022/12/30 08:12:25;;;;;;;;;;;;;;;-0.06;86.47;99380.44;4276315;28;10000439;-66
2022/12/30 08:14:50;;;;;;;;;;;;;;;-0.08;86.75;99382.50;4940249;28;20013;-66
2022/12/30 08:17:16;;;;;;;;;;;;;;;-0.15;86.57;99386.06;4946101;28;19934;-66
2022/12/30 08:19:42;;;;;;;;;;;;;;;-0.16;86.74;99379.06;4941649;28;20005;-66
2022/12/30 08:22:07;;;;;;;;;;;;;;;-0.11;86.59;99377.56;4939527;28;20398;-66
2022/12/30 08:24:33;;;;;;;;;;;;;;;-0.12;86.79;99374.03;4937184;29;20485;-65
2022/12/30 08:27:00;;;;;;;;;;;;;;;-0.09;86.78;99375.50;4939344;29;19931;-66
2022/12/30 08:29:28;;;;;;;;;;;;;;;-0.04;86.75;99368.44;4933352;28;19935;-66
2022/12/30 08:31:56;;;;;;;;;;;;;;;-0.02;86.86;99365.50;4924713;28;19935;-66
2022/12/30 08:34:22;;;;;;;;;;;;;;;-0.08;86.61;99359.16;4921323;29;20763;-66
2022/12/30 08:36:47;;;;;;;;;;;;;;;-0.09;86.82;99365.53;4917840;29;19982;-66
2022/12/30 08:39:13;;;;;;;;;;;;;;;-0.06;86.84;99365.13;4923717;29;19936;-66
2022/12/30 08:41:40;;;;;;;;;;;;;;;-0.05;86.95;99363.25;4918175;29;20038;-66
2022/12/30 08:44:07;;;;;;;;;;;;;;;-0.13;86.67;99356.28;4935810;28;19931;-66
2022/12/30 08:46:33;;;;;;;;;;;;;;;-0.02;87.03;99366.34;4939119;28;20283;-66
2022/12/30 08:48:59;;;;;;;;;;;;;;;0.00;86.96;99371.53;4939829;28;19934;-66
2022/12/30 08:51:25;;;;;;;;;;;;;;;0.02;87.19;99365.91;4937987;28;20457;-67
2022/12/30 08:53:51;;;;;;;;;;;;;;;0.06;86.92;99361.75;4938683;28;20689;-66
2022/12/30 08:56:18;;;;;;;;;;;;;;;0.05;86.85;99363.63;4926287;28;20033;-66
2022/12/30 08:58:44;;;;;;;;;;;;;;;0.11;87.12;99356.56;4948011;28;19930;-66
2022/12/30 09:01:12;;;;;;;;;;;;;;;0.13;87.11;99365.22;4963893;28;19930;-66
2022/12/30 09:03:38;;;;;;;;;;;;;;;0.08;87.12;99360.50;4940461;28;19934;-66
2022/12/30 09:06:05;;;;;;;;;;;;;;;0.10;87.35;99366.47;4944428;28;20033;-66
2022/12/30 09:08:30;;;;;;;;;;;;;;;0.09;87.44;99351.38;4961224;28;20057;-66
2022/12/30 09:10:57;;;;;;;;;;;;;;;0.07;87.19;99352.63;4930108;28;19970;-66
2022/12/30 09:13:23;;;;;;;;;;;;;;;0.01;87.53;99346.28;4939891;28;19938;-66
2022/12/30 09:15:49;;;;;;;;;;;;;;;0.01;87.75;99350.81;4946475;28;19930;-66
2022/12/30 09:18:16;;;;;;;;;;;;;;;0.04;87.89;99359.28;4938163;28;20018;-65
2022/12/30 09:20:42;;;;;;;;;;;;;;;0.07;87.85;99349.94;4926680;29;19935;-66
2022/12/30 09:23:07;;;;;;;;;;;;;;;0.13;87.77;99344.53;4940103;28;19938;-66
2022/12/30 09:25:33;;;;;;;;;;;;;;;0.24;87.81;99336.81;4934391;28;20008;-66
2022/12/30 09:27:59;;;;;;;;;;;;;;;0.36;87.57;99340.44;4936953;28;19937;-66
2022/12/30 09:30:24;;;;;;;;;;;;;;;0.49;87.34;99334.13;4928240;29;20022;-66
2022/12/30 09:32:50;;;;;;;;;;;;;;;0.65;86.90;99329.25;4934014;28;20371;-66
2022/12/30 09:35:17;;;;;;;;;;;;;;;0.68;86.37;99315.34;4927740;28;19937;-66
2022/12/30 09:37:43;;;;;;;;;;;;;;;0.60;85.99;99313.75;4921568;29;20829;-66
2022/12/30 09:40:13;;;;;;;;;;;;;;;0.65;86.34;99321.16;4921977;29;19935;-67
2022/12/30 09:45:26;;;;;;;;;;;;;;;0.67;85.99;99327.16;4924228;29;20399;-66
2022/12/30 09:47:53;;;;;;;;;;;;;;;0.60;85.79;99315.63;4924866;29;19962;-66
2022/12/30 09:50:28;;;;;;;;;;;;;;;0.54;86.12;99322.72;4927607;29;19938;-67
2022/12/30 09:52:59;;;;;;;;;;;;;;;0.45;86.19;99318.66;4947559;28;19938;-66
2022/12/30 09:55:26;;;;;;;;;;;;;;;0.42;86.47;99309.97;4950666;29;19930;-66
2022/12/30 09:57:54;;;;;;;;;;;;;;;0.42;86.80;99309.16;4949710;29;19934;-66
2022/12/30 10:00:21;;;;;;;;;;;;;;;0.41;86.97;99312.91;4941505;28;20092;-66
2022/12/30 10:02:53;;;;;;;;;;;;;;;0.38;87.10;99322.22;4950900;28;19938;-66
2022/12/30 10:05:23;;;;;;;;;;;;;;;0.44;87.17;99308.94;4949157;28;19966;-66
2022/12/30 10:07:53;;;;;;;;;;;;;;;0.49;87.01;99303.72;4958138;28;20318;-66
2022/12/30 10:10:24;;;;;;;;;;;;;;;0.44;86.83;99301.69;4969907;28;19934;-66
2022/12/30 10:12:55;;;;;;;;;;;;;;;0.36;86.88;99308.19;4930419;28;19930;-66
2022/12/30 10:15:27;;;;;;;;;;;;;;;0.38;87.13;99316.00;4934350;28;20366;-66
2022/12/30 10:18:09;;;;;;;;;;;;;;;0.42;87.21;99303.78;4950091;29;20105;-66
2022/12/30 10:20:43;;;;;;;;;;;;;;;0.46;87.06;99309.53;4949561;29;19930;-66
2022/12/30 10:23:17;;;;;;;;;;;;;;;0.45;87.16;99314.09;4945271;28;19934;-66
2022/12/30 10:25:44;;;;;;;;;;;;;;;0.45;87.18;99308.72;4946744;28;19931;-66
2022/12/30 10:28:12;;;;;;;;;;;;;;;0.54;87.22;99304.69;4949531;28;20041;-66
2022/12/30 10:30:40;;;;;;;;;;;;;;;0.60;86.94;99305.69;4949333;28;19981;-66
2022/12/30 10:33:07;;;;;;;;;;;;;;;0.58;86.72;99312.34;4946225;28;19930;-66
2022/12/30 10:35:33;;;;;;;;;;;;;;;0.56;86.80;99310.69;4949994;28;20028;-66
2022/12/30 10:38:04;;;;;;;;;;;;;;;0.60;86.66;99302.19;4942517;28;19936;-66
2022/12/30 10:40:37;;;;;;;;;;;;;;;0.55;86.56;99310.91;4938566;28;20024;-66
2022/12/30 10:43:10;;;;;;;;;;;;;;;0.50;86.60;99294.63;4942283;28;19935;-66
2022/12/30 10:45:42;;;;;;;;;;;;;;;0.49;86.84;99295.66;4944243;28;19934;-66
2022/12/30 10:48:16;;;;;;;;;;;;;;;0.48;86.91;99302.91;4937166;28;19971;-66
2022/12/30 10:50:45;;;;;;;;;;;;;;;0.51;87.21;99307.81;4939650;28;20029;-66
2022/12/30 10:53:12;;;;;;;;;;;;;;;0.51;86.96;99293.56;4936563;28;19931;-67
2022/12/30 10:55:45;;;;;;;;;;;;;;;0.52;87.16;99290.63;4939115;28;20299;-66
2022/12/30 10:58:13;;;;;;;;;;;;;;;0.54;86.96;99283.16;4920995;29;19938;-66
2022/12/30 11:00:40;;;;;;;;;;;;;;;0.55;87.03;99276.78;4928921;29;20314;-66
2022/12/30 11:03:14;;;;;;;;;;;;;;;0.52;87.13;99277.19;4933921;28;19934;-66
2022/12/30 11:05:39;;;;;;;;;;;;;;;0.55;87.16;99267.84;4965361;28;20058;-66
2022/12/30 11:08:06;;;;;;;;;;;;;;;0.60;86.99;99277.97;4938028;29;19948;-66
2022/12/30 11:10:32;;;;;;;;;;;;;;;0.56;87.04;99272.19;4929740;28;19941;-66
2022/12/30 11:15:56;;;;;;;;;;;;;;;0.52;87.48;99279.06;4947528;28;20159;-66
2022/12/30 11:18:25;;;;;;;;;;;;;;;0.50;87.83;99281.97;4947337;29;19934;-66
2022/12/30 11:20:51;;;;;;;;;;;;;;;0.51;87.98;99286.31;4934472;28;19931;-66
2022/12/30 11:23:22;;;;;;;;;;;;;;;0.50;88.11;99294.63;4930976;29;19930;-67
2022/12/30 11:25:48;;;;;;;;;;;;;;;0.48;88.13;99294.81;4928478;29;20367;-66
2022/12/30 11:28:17;;;;;;;;;;;;;;;0.50;88.33;99295.41;4941692;28;20089;-66
2022/12/30 11:30:53;;;;;;;;;;;;;;;0.50;88.37;99295.41;4944934;28;19937;-66
2022/12/30 11:33:21;;;;;;;;;;;;;;;0.53;88.59;99304.94;4947464;28;19937;-66
2022/12/30 11:35:48;;;;;;;;;;;;;;;0.50;88.58;99286.53;4944699;28;20418;-65
2022/12/30 11:38:28;;;;;;;;;;;;;;;0.50;88.76;99297.31;4948116;29;19930;-66
2022/12/30 11:40:54;;;;;;;;;;;;;;;0.44;88.79;99288.25;4946843;29;19985;-66
2022/12/30 11:43:21;;;;;;;;;;;;;;;0.39;89.24;99294.28;4945820;28;19934;-66
2022/12/30 11:45:52;;;;;;;;;;;;;;;0.41;89.58;99297.56;4925674;29;19931;-66
2022/12/30 11:48:20;;;;;;;;;;;;;;;0.45;89.50;99292.59;4926966;29;19954;-66
2022/12/30 11:50:51;;;;;;;;;;;;;;;0.47;89.62;99292.34;4931325;29;19978;-66
2022/12/30 11:53:17;;;;;;;;;;;;;;;0.47;89.59;99301.25;4926796;29;20037;-67
2022/12/30 11:55:49;;;;;;;;;;;;;;;0.51;89.75;99293.56;4939805;28;20041;-66
2022/12/30 11:58:15;;;;;;;;;;;;;;;0.56;89.75;99302.63;4943672;28;20008;-66
2022/12/30 12:00:42;;;;;;;;;;;;;;;0.56;89.67;99302.63;4940700;28;20398;-66
2022/12/30 12:03:14;;;;;;;;;;;;;;;0.57;89.79;99300.75;4930023;29;20448;-66
2022/12/30 12:05:41;;;;;;;;;;;;;;;0.58;89.87;99302.38;4928356;29;20409;-66
2022/12/30 12:08:12;;;;;;;;;;;;;;;0.61;89.87;99296.56;4948113;28;19977;-66
2022/12/30 12:10:38;;;;;;;;;;;;;;;0.66;90.04;99287.81;4963617;28;20454;-66
2022/12/30 12:13:09;;;;;;;;;;;;;;;0.65;90.17;99289.72;4926510;29;20274;-66
2022/12/30 12:15:38;;;;;;;;;;;;;;;0.64;90.13;99295.31;4937946;28;20057;-66
2022/12/30 12:18:10;;;;;;;;;;;;;;;0.61;90.32;99296.56;4965546;28;19937;-66
2022/12/30 12:20:40;;;;;;;;;;;;;;;0.62;90.33;99295.50;4965243;28;20329;-66
2022/12/30 12:23:11;;;;;;;;;;;;;;;0.61;90.55;99301.13;4933877;28;19985;-66
2022/12/30 12:25:40;;;;;;;;;;;;;;;0.51;90.68;99298.94;4925935;29;19937;-66
2022/12/30 12:28:08;;;;;;;;;;;;;;;0.48;90.99;99297.50;4927236;29;19930;-66
2022/12/30 12:30:43;;;;;;;;;;;;;;;0.50;90.97;99308.06;4929185;29;19931;-66
2022/12/30 12:33:17;;;;;;;;;;;;;;;0.50;91.00;99300.81;4928971;29;19973;-66
2022/12/30 12:35:47;;;;;;;;;;;;;;;0.58;91.04;99304.28;4931576;29;19931;-66
2022/12/30 12:38:22;;;;;;;;;;;;;;;0.62;90.79;99297.41;4937144;28;20030;-66
2022/12/30 12:40:55;;;;;;;;;;;;;;;0.61;90.64;99307.31;4962205;28;19930;-66
2022/12/30 12:43:23;;;;;;;;;;;;;;;0.60;90.72;99304.88;4966717;28;20028;-65
2022/12/30 12:46:01;;;;;;;;;;;;;;;0.53;90.66;99307.63;4938251;28;19931;-66
2022/12/30 12:48:40;;;;;;;;;;;;;;;0.52;90.95;99304.09;4587614;28;9999913;-66
2022/12/30 12:51:15;;;;;;;;;;;;;;;0.53;90.71;99308.44;4944370;28;19931;-66
2022/12/30 12:53:58;;;;;;;;;;;;;;;0.58;90.74;99297.00;4926385;29;19934;-66
2022/12/30 12:56:39;;;;;;;;;;;;;;;0.62;90.90;99290.13;4938570;28;19937;-66
2022/12/30 12:59:14;;;;;;;;;;;;;;;0.65;90.82;99302.31;4940901;29;19937;-66
2022/12/30 13:01:48;;;;;;;;;;;;;;;0.64;90.73;99303.38;4951263;28;20317;-66
2022/12/30 13:04:20;;;;;;;;;;;;;;;0.62;90.77;99306.28;4944412;28;20010;-66
2022/12/30 13:06:53;;;;;;;;;;;;;;;0.62;91.07;99306.28;4944681;28;19930;-66
2022/12/30 13:09:26;;;;;;;;;;;;;;;0.60;90.82;99312.94;4946995;28;19934;-65
2022/12/30 13:11:56;;;;;;;;;;;;;;;0.55;91.10;99303.69;4930606;28;20457;-66
2022/12/30 13:14:27;;;;;;;;;;;;;;;0.56;91.25;99302.63;4935078;28;19970;-66
2022/12/30 13:16:55;;;;;;;;;;;;;;;0.54;91.36;99309.25;4946919;28;19937;-66
2022/12/30 13:19:26;;;;;;;;;;;;;;;0.53;91.43;99294.16;4945669;28;19930;-66
2022/12/30 13:21:53;;;;;;;;;;;;;;;0.51;91.59;99307.03;4945256;28;19938;-66
2022/12/30 13:24:23;;;;;;;;;;;;;;;0.49;91.67;99299.16;4927373;28;19973;-65
2022/12/30 13:26:50;;;;;;;;;;;;;;;0.54;92.03;99302.00;4947923;28;20021;-66
2022/12/30 13:29:16;;;;;;;;;;;;;;;0.57;92.01;99308.81;4929946;28;20033;-66
2022/12/30 13:31:45;;;;;;;;;;;;;;;0.61;92.08;99309.22;4934826;28;20033;-66
2022/12/30 13:34:17;;;;;;;;;;;;;;;0.61;92.18;99312.69;4935987;28;19931;-65
2022/12/30 13:36:49;;;;;;;;;;;;;;;0.59;92.16;99319.38;4929446;29;19930;-65
2022/12/30 13:39:19;;;;;;;;;;;;;;;0.58;92.24;99310.47;4928929;29;20295;-66
2022/12/30 13:41:54;;;;;;;;;;;;;;;0.59;92.40;99314.00;4946483;28;20021;-65
2022/12/30 13:44:21;;;;;;;;;;;;;;;0.63;92.49;99305.25;4937242;28;20394;-66
2022/12/30 13:46:48;;;;;;;;;;;;;;;0.64;92.36;99312.28;4928538;29;20421;-65